עמוד ראשי
METAR-TAF:

METAR-TAF

שדות תעופה :

Window Rock Airport

Window Rock, אריזונה, ארצות הברית

קו רוחב: 35-39N, קו אורך: 109-04W, גובה: 2055מטר

תצפית מזג אוויר נוכחית

הדו"ח נערך לפני 1 שעות ו 9דקות, בשעה 11:53 UTC
רוח רגועה
טמפרטורת 13 צלסיוס
לחות 77%
לחץ 1031 hPa
ראות: 16.1קילומטר
שמיים נקיים

METAR: KRQE 251153Z AUTO 00000KT 10SM CLR 13/09 A3044 RMK AO2 SLP181 T01280094 10211 20128 53002

זמן: 06:02 (13:02 UTC)


TAF: חסר

תצפיות ותחזיות מזג אוויר לגבי יותר מ- 4,000 שדות תעופה ברחבי העולם. דוחות METAR ו- TAF.

התחנות הזמינות מסומנות בנקודות צהובות ואדומות על גבי המפה.

העבר את העכבר לנקודה הצבעונית על מנת לראות את שם התחנה.

לאחר מכן, לחץ כדי לראות את תוכן ואת תחזיות מזג האוויר.

כדי לשנות את המפה: לחץ על הכפתורים הירוקים עם הפלוס השחור כדי להתקרב; על הכפתור הירוק עם המקף כדי להתרחק; או בחיצים הירוקים למפות סמוכות.


METAR-TAF: